Time;durP1;ratioP1;P1;durP2;ratioP2;P2;SDS_P1;SDS_P2;PMS_P1;PMS_P2;Temp;Humidity;BMP_temperature;BMP_pressure;BME280_temperature;BME280_humidity;BME280_pressure;Samples;Min_cycle;Max_cycle;Signal;HPM_P1;HPM_P2
2022/01/07 00:00:16;;;;;;;0.17;0.17;;;;;;;5.96;66.39;101386.88;5053765;28;20557;-85
2022/01/07 00:02:48;;;;;;;0.10;0.10;;;;;;;6.02;65.68;101384.31;5053548;28;20036;-86
2022/01/07 00:05:15;;;;;;;0.50;0.50;;;;;;;5.93;65.78;101373.66;5053846;28;20035;-86
2022/01/07 00:07:42;;;;;;;0.10;0.10;;;;;;;5.92;66.16;101378.06;5052465;28;20027;-86
2022/01/07 00:10:10;;;;;;;0.10;0.10;;;;;;;5.92;65.59;101369.28;5053769;28;20044;-85
2022/01/07 00:12:36;;;;;;;0.10;0.10;;;;;;;5.90;65.49;101365.78;5053375;28;20057;-86
2022/01/07 00:15:05;;;;;;;0.10;0.10;;;;;;;5.91;65.35;101364.91;5053356;28;20041;-86
2022/01/07 00:17:31;;;;;;;0.10;0.10;;;;;;;5.97;64.69;101359.69;5053406;28;20025;-86
2022/01/07 00:19:58;;;;;;;0.10;0.10;;;;;;;6.05;64.51;101360.63;5053433;28;20036;-86
2022/01/07 00:22:25;;;;;;;0.10;0.10;;;;;;;6.08;64.11;101352.78;5068903;28;20033;-85
2022/01/07 00:24:51;;;;;;;0.10;0.10;;;;;;;6.17;63.95;101341.44;5053544;28;20043;-86
2022/01/07 00:27:17;;;;;;;0.10;0.10;;;;;;;6.27;63.64;101342.38;5053370;28;20476;-86
2022/01/07 00:29:43;;;;;;;0.10;0.10;;;;;;;6.15;63.77;101336.16;5053430;28;20387;-85
2022/01/07 00:32:10;;;;;;;0.10;0.10;;;;;;;6.20;63.38;101335.31;5052974;28;20029;-86
2022/01/07 00:34:36;;;;;;;0.10;0.10;;;;;;;6.27;63.43;101337.13;5053213;28;20455;-86
2022/01/07 00:37:02;;;;;;;0.10;0.10;;;;;;;6.30;63.31;101331.84;5053296;28;20059;-86
2022/01/07 00:39:28;;;;;;;0.13;0.13;;;;;;;6.27;63.33;101323.97;5053240;28;20037;-86
2022/01/07 00:41:54;;;;;;;0.20;0.20;;;;;;;6.20;63.49;101327.41;5053205;28;20035;-86
2022/01/07 00:44:21;;;;;;;0.10;0.10;;;;;;;6.38;63.09;101314.38;5068553;28;20047;-86
2022/01/07 00:46:47;;;;;;;0.10;0.10;;;;;;;6.39;63.38;101312.59;5053064;28;20117;-85
2022/01/07 00:49:20;;;;;;;0.10;0.10;;;;;;;6.32;63.35;101309.06;5053261;28;20490;-85
2022/01/07 00:51:48;;;;;;;0.10;0.10;;;;;;;6.17;63.75;101315.13;5053199;28;20033;-85
2022/01/07 00:54:14;;;;;;;0.10;0.10;;;;;;;6.18;64.46;101322.16;5053743;28;20056;-84
2022/01/07 00:56:40;;;;;;;0.20;0.20;;;;;;;6.08;65.35;101320.31;5057087;28;20029;-84
2022/01/07 00:59:06;;;;;;;0.17;0.17;;;;;;;6.05;65.82;101320.31;5057088;28;20060;-86
2022/01/07 01:01:33;;;;;;;0.10;0.10;;;;;;;6.05;65.81;101310.66;5056943;28;20033;-85
2022/01/07 01:03:59;;;;;;;0.10;0.10;;;;;;;5.95;65.91;101312.31;5056893;28;20496;-85
2022/01/07 01:06:25;;;;;;;0.10;0.10;;;;;;;5.95;66.04;101314.94;5072270;28;20553;-86
2022/01/07 01:08:51;;;;;;;0.10;0.10;;;;;;;5.97;66.24;101310.59;5057092;28;20033;-85
2022/01/07 01:11:17;;;;;;;0.40;0.40;;;;;;;5.98;66.55;101300.94;5057007;28;20078;-86
2022/01/07 01:13:43;;;;;;;0.90;0.90;;;;;;;6.02;67.16;101293.97;5056604;28;20032;-86
2022/01/07 01:16:10;;;;;;;0.10;0.10;;;;;;;6.04;67.18;101286.97;5057013;28;20116;-86
2022/01/07 01:18:36;;;;;;;0.08;0.08;;;;;;;5.81;68.32;101275.41;5056748;28;20033;-85
2022/01/07 01:21:02;;;;;;;0.55;0.55;;;;;;;5.81;68.25;101283.28;5056851;28;20039;-87
2022/01/07 01:23:28;;;;;;;0.10;0.10;;;;;;;5.89;68.25;101277.22;5056665;28;20029;-84
2022/01/07 01:25:54;;;;;;;0.20;0.20;;;;;;;5.79;68.67;101285.03;5056452;28;20033;-85
2022/01/07 01:28:21;;;;;;;0.10;0.10;;;;;;;5.84;68.18;101274.53;5056499;28;20500;-86
2022/01/07 01:30:47;;;;;;;0.10;0.10;;;;;;;5.85;68.56;101267.56;5056502;28;20059;-86
2022/01/07 01:33:14;;;;;;;0.10;0.10;;;;;;;5.91;68.22;101264.97;5056621;28;20557;-86
2022/01/07 01:35:41;;;;;;;0.10;0.10;;;;;;;5.68;68.74;101260.41;5057139;28;20028;-86
2022/01/07 01:38:07;;;;;;;0.10;0.10;;;;;;;5.72;68.85;101261.31;5056215;28;20025;-87
2022/01/07 01:40:34;;;;;;;0.10;0.10;;;;;;;5.78;68.88;101264.00;5056670;28;20071;-86
2022/01/07 01:43:01;;;;;;;0.55;0.55;;;;;;;5.79;68.55;101265.75;5056048;28;20033;-86
2022/01/07 01:45:28;;;;;;;0.13;0.13;;;;;;;5.72;68.92;101254.31;5056198;28;20429;-84
2022/01/07 01:47:55;;;;;;;0.10;0.10;;;;;;;5.86;68.63;101250.88;5056376;28;20047;-86
2022/01/07 01:50:22;;;;;;;1.27;0.95;;;;;;;5.77;68.87;101252.59;5056377;28;20055;-86
2022/01/07 01:52:53;;;;;;;0.10;0.10;;;;;;;5.81;68.88;101253.50;5055886;28;20045;-86
2022/01/07 01:55:22;;;;;;;0.10;0.10;;;;;;;5.91;68.08;101246.56;5071347;28;20040;-85
2022/01/07 01:57:50;;;;;;;0.10;0.10;;;;;;;5.81;68.89;101237.72;5056209;28;20083;-85
2022/01/07 02:00:17;;;;;;;0.10;0.10;;;;;;;5.84;68.70;101227.22;5056137;28;20025;-86
2022/01/07 02:02:43;;;;;;;0.10;0.10;;;;;;;5.92;68.55;101230.78;5056184;28;20098;-85
2022/01/07 02:05:10;;;;;;;0.10;0.10;;;;;;;5.84;68.63;101240.34;5055297;28;20032;-86
2022/01/07 02:07:39;;;;;;;0.10;0.10;;;;;;;5.86;68.90;101230.75;5055782;28;20025;-85
2022/01/07 02:10:09;;;;;;;0.10;0.10;;;;;;;5.76;69.18;101221.91;5056535;28;20033;-86
2022/01/07 02:12:35;;;;;;;0.05;0.05;;;;;;;5.85;68.65;101220.22;5056333;28;20029;-86
2022/01/07 02:15:02;;;;;;;0.10;0.10;;;;;;;5.92;68.38;101219.34;5055644;28;20532;-86
2022/01/07 02:17:29;;;;;;;0.10;0.10;;;;;;;5.79;69.02;101214.03;5055699;28;20051;-86
2022/01/07 02:19:56;;;;;;;0.10;0.10;;;;;;;5.91;68.85;101212.38;5055534;28;20078;-85
2022/01/07 02:22:23;;;;;;;0.20;0.20;;;;;;;5.76;69.78;101207.91;5055522;28;20075;-86
2022/01/07 02:24:50;;;;;;;0.10;0.10;;;;;;;5.88;69.16;101205.34;5055242;28;20120;-86
2022/01/07 02:27:17;;;;;;;0.10;0.10;;;;;;;5.83;69.41;101205.31;5055644;28;20032;-85
2022/01/07 02:29:46;;;;;;;0.10;0.10;;;;;;;5.93;68.97;101200.09;5055382;28;20056;-85
2022/01/07 02:32:13;;;;;;;0.17;0.17;;;;;;;5.99;69.05;101206.31;5055103;28;20519;-85
2022/01/07 02:34:40;;;;;;;0.10;0.10;;;;;;;6.04;68.95;101198.41;5054409;28;20029;-85
2022/01/07 02:37:06;;;;;;;0.10;0.10;;;;;;;5.89;69.22;101199.19;5055192;28;20039;-85
2022/01/07 02:39:32;;;;;;;0.10;0.10;;;;;;;5.92;69.28;101198.31;5055388;28;20037;-84
2022/01/07 02:41:59;;;;;;;0.10;0.10;;;;;;;6.00;69.31;101196.66;5054830;28;20083;-86
2022/01/07 02:44:25;;;;;;;0.10;0.10;;;;;;;6.01;69.12;101201.03;5054977;28;20025;-86
2022/01/07 02:46:51;;;;;;;0.10;0.10;;;;;;;6.01;69.28;101193.16;5055041;28;20396;-86
2022/01/07 02:49:18;;;;;;;0.10;0.10;;;;;;;6.05;68.97;101188.78;5054920;28;20090;-86
2022/01/07 02:51:46;;;;;;;0.20;0.20;;;;;;;6.06;69.12;101177.41;5054883;28;20033;-85
2022/01/07 02:54:13;;;;;;;0.20;0.20;;;;;;;5.99;69.24;101173.84;5054710;28;20048;-86
2022/01/07 02:56:40;;;;;;;0.10;0.10;;;;;;;5.97;69.30;101168.56;5055227;28;20495;-86
2022/01/07 02:59:08;;;;;;;0.20;0.20;;;;;;;6.09;68.96;101172.13;5054960;28;20025;-85
2022/01/07 03:01:37;;;;;;;0.10;0.10;;;;;;;6.09;69.17;101166.88;5054847;28;20468;-85
2022/01/07 03:04:05;;;;;;;0.15;0.15;;;;;;;5.91;69.69;101159.75;5055007;28;20033;-85
2022/01/07 03:06:32;;;;;;;0.10;0.10;;;;;;;5.94;69.62;101157.13;5054448;28;20028;-86
2022/01/07 03:08:58;;;;;;;0.10;0.10;;;;;;;6.01;69.31;101151.06;5054771;28;20025;-86
2022/01/07 03:11:25;;;;;;;0.25;0.25;;;;;;;6.07;69.63;101152.81;5054442;28;20025;-85
2022/01/07 03:13:51;;;;;;;0.10;0.10;;;;;;;6.18;69.46;101143.25;5054547;28;20029;-85
2022/01/07 03:16:17;;;;;;;0.10;0.10;;;;;;;6.05;69.80;101168.59;5053993;28;20032;-86
2022/01/07 03:18:44;;;;;;;1.08;1.08;;;;;;;6.09;69.72;101148.44;5053835;28;20064;-85
2022/01/07 03:21:10;;;;;;;0.10;0.10;;;;;;;6.14;69.79;101158.13;5054624;28;20033;-85
2022/01/07 03:23:38;;;;;;;0.13;0.13;;;;;;;6.20;69.62;101143.25;5054280;28;20033;-86
2022/01/07 03:26:05;;;;;;;0.73;0.73;;;;;;;6.21;69.50;101145.00;5054342;28;20539;-85
2022/01/07 03:28:31;;;;;;;0.10;0.10;;;;;;;6.20;69.70;101135.34;5054389;28;20036;-86
2022/01/07 03:30:57;;;;;;;0.80;0.80;;;;;;;6.11;70.03;101137.06;5054492;28;20025;-86
2022/01/07 03:33:23;;;;;;;0.10;0.10;;;;;;;6.24;69.81;101132.72;5053859;28;20127;-84
2022/01/07 03:35:50;;;;;;;0.25;0.25;;;;;;;6.23;69.81;101130.97;5054409;28;20029;-84
2022/01/07 03:38:16;;;;;;;0.15;0.15;;;;;;;6.26;69.97;101130.09;5053969;28;20400;-84
2022/01/07 03:40:42;;;;;;;0.10;0.10;;;;;;;6.31;69.54;101134.47;5054351;28;20126;-85
2022/01/07 03:43:09;;;;;;;0.20;0.20;;;;;;;6.30;69.57;101129.22;5054035;28;20068;-84
2022/01/07 03:45:36;;;;;;;0.10;0.10;;;;;;;6.28;69.93;101123.97;5053990;28;20033;-84
2022/01/07 03:48:02;;;;;;;0.20;0.20;;;;;;;6.26;70.16;101120.44;5053861;28;20541;-85
2022/01/07 03:50:29;;;;;;;0.20;0.20;;;;;;;6.34;69.99;101107.28;5054008;28;20053;-85
2022/01/07 03:52:57;;;;;;;0.22;0.22;;;;;;;6.34;69.97;101116.94;5053862;28;20032;-85
2022/01/07 03:55:28;;;;;;;0.10;0.10;;;;;;;6.27;70.50;101111.69;5053781;28;20083;-84
2022/01/07 03:57:55;;;;;;;0.20;0.20;;;;;;;6.40;69.90;101102.03;5053818;28;20083;-84
2022/01/07 04:00:25;;;;;;;0.10;0.10;;;;;;;6.50;69.65;101104.69;5053583;28;20021;-85
2022/01/07 04:02:52;;;;;;;0.20;0.20;;;;;;;6.45;69.81;101094.16;5053879;28;20036;-85
2022/01/07 04:05:22;;;;;;;0.10;0.10;;;;;;;6.51;70.06;101088.03;5053733;28;20031;-84
2022/01/07 04:07:49;;;;;;;0.15;0.15;;;;;;;6.54;69.91;101080.13;5053697;28;20029;-85
2022/01/07 04:10:15;;;;;;;0.10;0.10;;;;;;;6.57;69.54;101082.78;5053899;28;20409;-85
2022/01/07 04:12:42;;;;;;;0.17;0.17;;;;;;;6.55;69.70;101079.25;5053198;28;20029;-85
2022/01/07 04:15:09;;;;;;;0.10;0.10;;;;;;;6.50;70.03;101071.34;5053536;28;20131;-85
2022/01/07 04:17:37;;;;;;;0.10;0.10;;;;;;;6.56;70.02;101083.66;5053572;28;20017;-85
2022/01/07 04:20:05;;;;;;;0.47;0.47;;;;;;;6.50;70.21;101076.59;5053362;28;20036;-86
2022/01/07 04:22:33;;;;;;;0.10;0.10;;;;;;;6.44;70.24;101074.88;5053789;28;20090;-85
2022/01/07 04:25:01;;;;;;;0.10;0.10;;;;;;;6.55;69.95;101076.63;5053432;28;20469;-84
2022/01/07 04:27:27;;;;;;;0.40;0.40;;;;;;;6.60;69.95;101073.13;5053315;28;20087;-84
2022/01/07 04:29:53;;;;;;;0.10;0.10;;;;;;;6.53;70.10;101081.00;5053121;28;20025;-85
2022/01/07 04:32:20;;;;;;;0.05;0.05;;;;;;;6.52;70.33;101071.34;5053485;28;20045;-84
2022/01/07 04:34:46;;;;;;;0.10;0.10;;;;;;;6.51;70.31;101072.25;5053706;28;20021;-85
2022/01/07 04:37:12;;;;;;;0.10;0.10;;;;;;;6.62;69.93;101062.59;5053488;28;20032;-86
2022/01/07 04:39:38;;;;;;;0.10;0.10;;;;;;;6.57;70.31;101056.44;5053303;28;20071;-85
2022/01/07 04:42:05;;;;;;;0.10;0.10;;;;;;;6.67;69.80;101062.56;5053108;28;20025;-85
2022/01/07 04:44:31;;;;;;;0.10;0.10;;;;;;;6.68;70.13;101067.84;5051899;28;20048;-85
2022/01/07 04:46:57;;;;;;;0.13;0.13;;;;;;;6.66;70.07;101082.75;5053532;28;20035;-84
2022/01/07 04:49:23;;;;;;;0.45;0.45;;;;;;;6.63;70.18;101066.97;5053358;28;20043;-84
2022/01/07 04:51:49;;;;;;;0.47;0.47;;;;;;;6.64;69.93;101074.88;5053238;28;20060;-84
2022/01/07 04:54:15;;;;;;;0.10;0.10;;;;;;;6.61;70.51;101063.44;5052794;28;20103;-85
2022/01/07 04:56:41;;;;;;;0.10;0.10;;;;;;;6.59;70.66;101060.81;5053022;28;20029;-85
2022/01/07 04:59:07;;;;;;;0.10;0.10;;;;;;;6.66;70.66;101056.44;5052994;28;20025;-85
2022/01/07 05:01:33;;;;;;;0.10;0.10;;;;;;;6.73;70.21;101047.66;5053378;28;20036;-85
2022/01/07 05:03:59;;;;;;;0.10;0.10;;;;;;;6.82;70.25;101051.13;5052930;28;20480;-84
2022/01/07 05:06:57;;;;;;;0.10;0.10;;;;;;;6.85;70.35;101049.38;5053195;28;20017;-85
2022/01/07 05:09:16;;;;;;;0.40;0.40;;;;;;;6.87;70.17;101045.00;5051852;28;20132;-84
2022/01/07 05:11:44;;;;;;;0.22;0.22;;;;;;;6.94;69.85;101040.59;5053074;28;20025;-85
2022/01/07 05:14:10;;;;;;;0.52;0.52;;;;;;;6.91;69.85;101043.25;5052827;28;20037;-85
2022/01/07 05:16:36;;;;;;;0.20;0.20;;;;;;;6.90;69.96;101044.09;5053012;28;20033;-85
2022/01/07 05:19:03;;;;;;;0.10;0.10;;;;;;;6.88;70.09;101056.41;5051776;28;20063;-85
2022/01/07 05:21:29;;;;;;;0.00;0.00;;;;;;;7.00;69.92;101040.56;5053049;28;20025;-85
2022/01/07 05:23:55;;;;;;;0.10;0.10;;;;;;;6.86;70.07;101034.47;5052486;28;20476;-84
2022/01/07 05:26:22;;;;;;;0.20;0.20;;;;;;;7.00;69.81;101039.72;5053524;28;20094;-85
2022/01/07 05:28:50;;;;;;;1.05;1.05;;;;;;;6.96;69.85;101044.09;5052732;28;20032;-84
2022/01/07 05:31:17;;;;;;;0.10;0.10;;;;;;;7.09;69.63;101056.38;5052901;28;20380;-85
2022/01/07 05:33:43;;;;;;;0.00;0.00;;;;;;;7.00;69.99;101068.69;5051344;28;20033;-85
2022/01/07 05:36:09;;;;;;;0.10;0.10;;;;;;;7.04;69.76;101058.16;5052677;28;20041;-85
2022/01/07 05:38:35;;;;;;;0.68;0.35;;;;;;;7.00;70.04;101058.16;5052563;28;20029;-85
2022/01/07 05:41:02;;;;;;;0.10;0.10;;;;;;;7.02;69.88;101059.91;5054423;28;20116;-85
2022/01/07 05:43:28;;;;;;;0.30;0.30;;;;;;;7.09;69.84;101051.09;5056340;28;20037;-85
2022/01/07 05:45:54;;;;;;;0.10;0.10;;;;;;;7.01;70.10;101058.13;5056667;28;20025;-86
2022/01/07 05:48:21;;;;;;;0.10;0.10;;;;;;;7.15;69.60;101054.59;5057189;28;20063;-86
2022/01/07 05:50:47;;;;;;;0.15;0.15;;;;;;;7.22;69.84;101056.34;5056946;28;20468;-86
2022/01/07 05:53:13;;;;;;;0.10;0.10;;;;;;;7.25;69.23;101051.94;5055773;28;20441;-84
2022/01/07 05:55:40;;;;;;;0.63;0.63;;;;;;;7.21;69.46;101059.88;5056366;28;20464;-85
2022/01/07 05:58:06;;;;;;;0.65;0.65;;;;;;;7.26;69.61;101063.34;5054829;28;20021;-85
2022/01/07 06:00:32;;;;;;;0.47;0.47;;;;;;;7.25;69.27;101043.16;5055994;28;20029;-85
2022/01/07 06:02:58;;;;;;;1.30;1.08;;;;;;;7.09;69.87;101048.47;5056111;28;20072;-83
2022/01/07 06:05:24;;;;;;;0.10;0.10;;;;;;;7.30;69.54;101049.28;5056086;28;20159;-85
2022/01/07 06:07:51;;;;;;;0.03;0.03;;;;;;;7.29;69.37;101042.28;5055715;28;20033;-85
2022/01/07 06:10:17;;;;;;;0.17;0.17;;;;;;;7.21;69.34;101050.19;5055913;28;20065;-85
2022/01/07 06:12:43;;;;;;;0.25;0.25;;;;;;;7.26;69.35;101052.81;5055795;28;20138;-84
2022/01/07 06:15:09;;;;;;;0.10;0.10;;;;;;;7.19;69.57;101056.34;5055961;28;20048;-85
2022/01/07 06:17:36;;;;;;;0.30;0.30;;;;;;;7.23;69.29;101060.75;5055650;28;20025;-84
2022/01/07 06:20:04;;;;;;;0.10;0.10;;;;;;;7.14;69.38;101053.75;5055587;28;20025;-85
2022/01/07 06:22:30;;;;;;;0.10;0.10;;;;;;;7.27;69.13;101051.94;5055472;28;20033;-85
2022/01/07 06:24:56;;;;;;;0.10;0.10;;;;;;;7.21;69.45;101057.22;5055373;28;20033;-85
2022/01/07 06:27:22;;;;;;;0.20;0.20;;;;;;;7.22;69.48;101056.34;5055478;28;20025;-85
2022/01/07 06:29:48;;;;;;;0.10;0.10;;;;;;;7.29;69.36;101066.00;5055219;28;20031;-84
2022/01/07 06:32:14;;;;;;;0.57;0.57;;;;;;;7.42;69.02;101051.88;5055409;28;20029;-84
2022/01/07 06:34:40;;;;;;;0.10;0.10;;;;;;;7.28;69.48;101051.06;5055104;28;20091;-85
2022/01/07 06:37:07;;;;;;;0.20;0.20;;;;;;;7.37;69.28;101051.00;5055170;28;20040;-85
2022/01/07 06:39:34;;;;;;;0.10;0.10;;;;;;;7.37;68.72;101052.78;5055463;28;20039;-84
2022/01/07 06:42:01;;;;;;;0.17;0.17;;;;;;;7.51;68.57;101048.31;5055341;28;20028;-85
2022/01/07 06:44:28;;;;;;;0.32;0.32;;;;;;;7.49;69.00;101052.75;5054996;28;20037;-83
2022/01/07 06:46:54;;;;;;;0.10;0.10;;;;;;;7.46;69.17;101055.38;5055598;28;20029;-84
2022/01/07 06:49:20;;;;;;;0.30;0.30;;;;;;;7.50;68.73;101058.88;5055082;28;20033;-85
2022/01/07 06:51:46;;;;;;;0.20;0.20;;;;;;;7.57;69.08;101056.22;5054931;28;20480;-85
2022/01/07 06:54:13;;;;;;;0.15;0.15;;;;;;;7.57;68.65;101060.63;5054779;28;20044;-85
2022/01/07 06:56:40;;;;;;;0.10;0.10;;;;;;;7.58;68.84;101065.03;5055164;28;20021;-85
2022/01/07 06:59:06;;;;;;;0.10;0.10;;;;;;;7.56;68.62;101061.50;5054970;28;20028;-85
2022/01/07 07:01:33;;;;;;;0.10;0.10;;;;;;;7.56;69.31;101061.50;5054622;28;20127;-85
2022/01/07 07:03:59;;;;;;;0.20;0.20;;;;;;;7.57;68.91;101073.81;5054664;28;20380;-85
2022/01/07 07:06:25;;;;;;;0.22;0.22;;;;;;;7.49;68.62;101054.50;5054862;28;20033;-85
2022/01/07 07:08:51;;;;;;;0.20;0.20;;;;;;;7.54;68.71;101058.88;5054658;28;20108;-84
2022/01/07 07:11:17;;;;;;;0.20;0.20;;;;;;;7.59;68.43;101054.47;5054787;28;20053;-83
2022/01/07 07:13:43;;;;;;;0.20;0.20;;;;;;;7.51;68.58;101050.09;5054459;28;20119;-85
2022/01/07 07:16:09;;;;;;;0.10;0.10;;;;;;;7.42;68.74;101048.38;5036718;28;20059;-85
2022/01/07 07:18:35;;;;;;;0.63;0.32;;;;;;;7.42;68.61;101056.28;5054295;28;20031;-84
2022/01/07 07:21:01;;;;;;;0.15;0.15;;;;;;;7.42;68.39;101051.00;5054445;28;20468;-85
2022/01/07 07:23:28;;;;;;;0.10;0.10;;;;;;;7.33;68.58;101051.03;5054678;28;20029;-84
2022/01/07 07:25:54;;;;;;;0.20;0.20;;;;;;;7.31;69.01;101055.44;5054172;28;20123;-85
2022/01/07 07:28:20;;;;;;;0.10;0.10;;;;;;;7.24;68.70;101058.09;5054199;28;20104;-85
2022/01/07 07:30:47;;;;;;;0.25;0.25;;;;;;;7.18;69.34;101060.75;5054190;28;20493;-85
2022/01/07 07:33:32;;;;;;;0.10;0.10;;;;;;;7.25;69.02;101057.22;5054002;28;20479;-85
2022/01/07 07:36:30;;;;;;;1.17;1.10;;;;;;;7.25;69.07;101051.06;5054077;28;20025;-84
2022/01/07 07:38:45;;;;;;;0.10;0.10;;;;;;;7.33;68.75;101041.38;5053886;28;20033;-85
2022/01/07 07:41:12;;;;;;;0.20;0.20;;;;;;;7.27;68.73;101049.31;5054156;28;20102;-81
2022/01/07 07:43:40;;;;;;;3.40;2.90;;;;;;;7.24;68.77;101038.75;5053780;28;20048;-85
2022/01/07 07:46:06;;;;;;;0.10;0.10;;;;;;;7.19;68.69;101036.16;5054033;28;20059;-85
2022/01/07 07:48:33;;;;;;;0.10;0.10;;;;;;;7.28;68.93;101035.25;5054354;28;20044;-83
2022/01/07 07:50:59;;;;;;;0.10;0.10;;;;;;;7.19;68.66;101032.63;5053415;28;20039;-85
2022/01/07 07:53:26;;;;;;;0.20;0.20;;;;;;;7.11;69.03;101049.31;5053699;28;20114;-84
2022/01/07 07:55:53;;;;;;;0.20;0.20;;;;;;;7.09;68.83;101050.22;5053781;28;20099;-85
2022/01/07 07:58:22;;;;;;;0.10;0.10;;;;;;;7.08;68.82;101054.63;5053513;28;20032;-85
2022/01/07 08:00:48;;;;;;;0.10;0.10;;;;;;;7.01;69.08;101050.22;5053414;28;20400;-85
2022/01/07 08:03:15;;;;;;;0.73;0.73;;;;;;;6.98;69.16;101052.88;5053070;28;20531;-84
2022/01/07 08:05:41;;;;;;;0.20;0.20;;;;;;;6.91;69.14;101053.78;5053320;28;20381;-85
2022/01/07 08:08:07;;;;;;;0.10;0.10;;;;;;;6.96;68.79;101052.00;5053273;28;20021;-85
2022/01/07 08:10:33;;;;;;;0.10;0.10;;;;;;;6.93;69.06;101058.16;5053283;28;20038;-84
2022/01/07 08:16:04;;;;;;;0.57;0.57;;;;;;;6.79;69.31;101060.81;5071861;27;20169;-84
2022/01/07 08:18:33;;;;;;;1.92;0.55;;;;;;;6.88;69.29;101059.03;5070509;28;20033;-84
2022/01/07 08:21:04;;;;;;;0.10;0.10;;;;;;;6.80;69.29;101070.47;5070663;28;20029;-80
2022/01/07 08:23:33;;;;;;;0.20;0.20;;;;;;;6.80;69.43;101074.84;5070442;28;20033;-84
2022/01/07 08:26:00;;;;;;;0.10;0.10;;;;;;;6.79;69.46;101073.97;5070821;28;20377;-84
2022/01/07 08:28:32;;;;;;;0.15;0.15;;;;;;;6.85;69.40;101057.28;5070435;28;20070;-83
2022/01/07 08:31:24;;;;;;;0.10;0.10;;;;;;;6.88;69.11;101061.66;5070907;28;20063;-85
2022/01/07 08:36:32;;;;;;;0.90;0.70;;;;;;;6.77;69.70;101059.06;5070133;28;20040;-84
2022/01/07 08:39:00;;;;;;;0.10;0.10;;;;;;;6.98;69.26;101066.06;5070091;28;20024;-84
2022/01/07 08:41:28;;;;;;;0.10;0.10;;;;;;;6.96;69.42;101059.91;5070342;28;20460;-83
2022/01/07 08:43:55;;;;;;;0.20;0.20;;;;;;;6.97;69.04;101059.03;5069913;28;20445;-85
2022/01/07 08:46:21;;;;;;;0.10;0.10;;;;;;;6.98;68.92;101047.63;5070038;28;20064;-84
2022/01/07 08:48:47;;;;;;;0.10;0.10;;;;;;;6.92;69.43;101047.63;5070228;28;20043;-84
2022/01/07 08:51:14;;;;;;;0.10;0.10;;;;;;;6.94;68.90;101051.13;5069231;28;20426;-85
2022/01/07 08:53:40;;;;;;;0.10;0.10;;;;;;;6.91;69.49;101045.88;5069866;28;20033;-85
2022/01/07 08:56:07;;;;;;;0.10;0.10;;;;;;;6.91;69.62;101046.72;5069836;28;20063;-85
2022/01/07 08:58:33;;;;;;;0.10;0.10;;;;;;;6.95;69.65;101055.50;5069868;28;20087;-85
2022/01/07 09:01:00;;;;;;;0.10;0.10;;;;;;;7.03;69.13;101044.94;5069918;28;20054;-85
2022/01/07 09:03:26;;;;;;;0.17;0.17;;;;;;;7.03;68.92;101047.59;5069799;28;20108;-85
2022/01/07 09:05:53;;;;;;;1.85;0.95;;;;;;;7.10;68.95;101055.50;5070041;28;20032;-84
2022/01/07 09:08:19;;;;;;;0.10;0.10;;;;;;;7.16;69.21;101045.81;5069853;28;20395;-85
2022/01/07 09:10:45;;;;;;;0.28;0.28;;;;;;;7.10;69.55;101037.06;5069532;28;20091;-85
2022/01/07 09:13:12;;;;;;;0.38;0.38;;;;;;;7.16;69.78;101043.19;5069688;28;20503;-85
2022/01/07 09:15:38;;;;;;;0.10;0.10;;;;;;;7.35;69.16;101037.00;5069133;28;20389;-85
2022/01/07 09:18:14;;;;;;;0.20;0.20;;;;;;;7.45;69.15;101032.53;5069580;28;20036;-85
2022/01/07 09:20:43;;;;;;;0.10;0.10;;;;;;;7.53;69.20;101030.75;5069279;28;20107;-85
2022/01/07 09:23:11;;;;;;;0.38;0.38;;;;;;;7.52;68.38;101028.13;5069377;28;20040;-84
2022/01/07 09:25:39;;;;;;;0.10;0.10;;;;;;;7.42;68.56;101043.97;5064800;28;20032;-84
2022/01/07 09:28:07;;;;;;;0.10;0.10;;;;;;;7.52;68.76;101036.91;5057143;28;20461;-85
2022/01/07 09:30:34;;;;;;;0.10;0.10;;;;;;;7.60;68.71;101036.84;5056432;28;20029;-84
2022/01/07 09:33:01;;;;;;;0.10;0.10;;;;;;;7.60;68.27;101036.84;5056473;28;20036;-84
2022/01/07 09:35:27;;;;;;;0.10;0.10;;;;;;;7.55;68.71;101050.09;5055944;28;20045;-84
2022/01/07 09:37:54;;;;;;;0.10;0.10;;;;;;;7.65;68.28;101043.03;5055955;28;20025;-84
2022/01/07 09:40:21;;;;;;;0.10;0.10;;;;;;;7.63;68.34;101035.97;5055714;28;20035;-82
2022/01/07 09:43:05;;;;;;;0.10;0.10;;;;;;;7.67;68.01;101043.88;5055837;28;20029;-84
2022/01/07 09:45:33;;;;;;;0.15;0.15;;;;;;;7.75;67.71;101042.06;5055519;28;20392;-83
2022/01/07 09:48:01;;;;;;;0.10;0.10;;;;;;;7.68;68.05;101035.06;5055588;28;20127;-83
2022/01/07 09:50:29;;;;;;;0.10;0.10;;;;;;;7.68;68.34;101029.81;5055544;28;20037;-84
2022/01/07 09:52:55;;;;;;;0.35;0.35;;;;;;;7.64;68.20;101038.63;5055475;28;20033;-85
2022/01/07 09:55:23;;;;;;;0.50;0.50;;;;;;;7.72;68.08;101026.25;5055443;28;20052;-84
2022/01/07 09:57:49;;;;;;;0.10;0.10;;;;;;;7.63;68.37;101036.88;5055641;28;20025;-84
2022/01/07 10:00:16;;;;;;;0.10;0.10;;;;;;;7.56;68.05;101029.84;5055514;28;20090;-84
2022/01/07 10:03:05;;;;;;;0.20;0.20;;;;;;;7.73;67.91;101035.91;5055508;28;20029;-85
2022/01/07 10:05:31;;;;;;;0.10;0.10;;;;;;;7.74;68.40;101040.31;5055233;28;20033;-85
2022/01/07 10:08:26;;;;;;;0.65;0.65;;;;;;;7.94;67.96;101041.97;5055482;28;20112;-85
2022/01/07 10:11:15;;;;;;;0.13;0.13;;;;;;;8.05;68.23;101045.44;5055712;28;20033;-85
2022/01/07 10:13:44;;;;;;;0.10;0.10;;;;;;;8.01;67.90;101053.34;5054655;28;20037;-84
2022/01/07 10:16:15;;;;;;;0.10;0.10;;;;;;;8.20;67.81;101049.72;5055351;28;20025;-85
2022/01/07 10:18:43;;;;;;;0.17;0.17;;;;;;;8.35;67.12;101055.75;5054928;28;20546;-84
2022/01/07 10:21:10;;;;;;;0.10;0.10;;;;;;;8.39;66.97;101068.94;5055064;28;20107;-84
2022/01/07 10:23:37;;;;;;;0.10;0.10;;;;;;;8.33;67.05;101049.63;5055007;28;20099;-84
2022/01/07 10:26:10;;;;;;;0.10;0.10;;;;;;;8.26;67.58;101047.03;5055022;28;20087;-85
2022/01/07 10:28:37;;;;;;;0.10;0.10;;;;;;;8.35;66.86;101048.75;5055043;28;20040;-85
2022/01/07 10:31:03;;;;;;;0.10;0.10;;;;;;;8.46;67.21;101046.06;5055068;28;20021;-85
2022/01/07 10:33:35;;;;;;;0.10;0.10;;;;;;;8.60;67.65;101032.72;5054559;28;20033;-85
2022/01/07 10:38:58;;;;;;;0.10;0.10;;;;;;;8.78;66.81;101030.81;5046616;27;1249863;-86
2022/01/07 10:41:24;;;;;;;0.52;0.50;;;;;;;8.81;66.33;101023.72;5090938;28;20067;-86
2022/01/07 10:43:52;;;;;;;0.75;0.75;;;;;;;8.82;65.99;101032.53;5089521;28;20034;-87
2022/01/07 10:46:24;;;;;;;0.10;0.10;;;;;;;8.79;65.42;101020.22;5070525;28;20107;-86
2022/01/07 10:49:05;;;;;;;0.20;0.20;;;;;;;8.79;64.78;101022.00;5070503;28;20447;-86
2022/01/07 10:51:38;;;;;;;0.10;0.10;;;;;;;8.70;64.85;101029.09;5070651;28;20029;-86
2022/01/07 10:54:05;;;;;;;;;;;;;;;8.78;64.64;101020.25;5070859;28;20025;-86
2022/01/07 10:59:14;;;;;;;0.10;0.10;;;;;;;8.62;64.92;101015.09;5090906;27;20409;-85
2022/01/07 11:04:30;;;;;;;0.10;0.10;;;;;;;8.86;64.29;101011.34;5030592;27;1209030;-84
2022/01/07 11:07:09;;;;;;;0.10;0.10;;;;;;;8.95;64.73;101002.44;5050790;28;20271;-83
2022/01/07 11:09:36;;;;;;;0.10;0.10;;;;;;;9.04;63.34;100994.41;5050554;28;20029;-85
2022/01/07 11:12:05;;;;;;;0.28;0.28;;;;;;;9.19;62.94;101003.06;5050706;28;20538;-84
2022/01/07 11:14:35;;;;;;;5.07;3.30;;;;;;;9.35;62.72;101011.69;5050481;28;20088;-85
2022/01/07 11:17:04;;;;;;;0.10;0.10;;;;;;;9.44;63.15;101010.69;5050741;28;20039;-83
2022/01/07 11:19:36;;;;;;;0.10;0.10;;;;;;;9.47;62.28;101008.91;5050596;28;20021;-85
2022/01/07 11:22:03;;;;;;;;;;;;;;;9.87;61.09;101015.41;5050592;28;20037;-84
2022/01/07 11:24:50;;;;;;;0.10;0.10;;;;;;;9.78;60.72;101019.06;5050097;28;19913;-85
2022/01/07 11:27:21;;;;;;;0.10;0.10;;;;;;;9.69;60.39;101021.81;5050896;28;20037;-84
2022/01/07 11:35:41;;;;;;;0.10;0.10;;;;;;;9.53;61.05;101006.16;5111232;27;20926;-83
2022/01/07 11:38:15;;;;;;;0.10;0.10;;;;;;;9.65;60.70;101005.13;5111394;27;20046;-85
2022/01/07 11:46:21;;;;;;;0.20;0.20;;;;;;;9.37;60.21;100994.91;5095194;27;1280408;-84
2022/01/07 11:48:47;;;;;;;0.30;0.30;;;;;;;9.35;60.07;101009.91;5131768;28;20043;-84
2022/01/07 11:51:16;;;;;;;0.10;0.10;;;;;;;9.37;59.75;100999.31;5131796;28;20032;-84
2022/01/07 11:56:25;;;;;;;0.75;0.75;;;;;;;9.35;59.85;101001.97;5091048;27;20400;-84
2022/01/07 11:58:55;;;;;;;0.10;0.10;;;;;;;9.34;60.03;101002.88;5090856;28;20068;-84
2022/01/07 12:01:31;;;;;;;0.10;0.10;;;;;;;9.31;60.08;101005.56;5090966;28;20056;-84
2022/01/07 12:04:00;;;;;;;0.10;0.10;;;;;;;9.30;60.86;100998.53;5091057;28;20090;-84